D/T METAR WX W/DIR W/SPE G/SPE TEMP DEWP
19/03/19 20:50 EGKK 192050Z 21005KT 9999 FEW043 09/08 Q1029 SSW (210°) 5.8mph 9°C 8°C
19/03/19 20:20 EGKK 192020Z 23005KT 9999 FEW043 10/08 Q1030 SW (230°) 5.8mph 10°C 8°C
19/03/19 19:50 EGKK 191950Z 23005KT 9999 FEW014 BKN047 10/08 Q1030 SW (230°) 5.8mph 10°C 8°C
19/03/19 19:20 EGKK 191920Z 22006KT 9999 SCT013 BKN046 10/08 Q1029 SW (220°) 6.9mph 10°C 8°C
19/03/19 18:50 EGKK 191850Z 23005KT 200V260 9999 FEW011 BKN015 10/08 Q1029 SW (230°) 5.8mph 10°C 8°C
19/03/19 18:20 EGKK 191820Z 24005KT 9999 FEW011 BKN016 10/08 Q1029 WSW (240°) 5.8mph 10°C 8°C
19/03/19 17:50 EGKK 191750Z 21006KT 9999 SCT015 SCT038 10/08 Q1028 SSW (210°) 6.9mph 10°C 8°C
19/03/19 17:20 EGKK 191720Z 22006KT 180V250 9999 FEW017 SCT038 10/08 Q1028 SW (220°) 6.9mph 10°C 8°C
19/03/19 16:50 EGKK 191650Z 23009KT 9000 VCSH FEW017 BKN030 10/08 Q1028 VCSH SW (230°) 10.4mph 10°C 8°C
19/03/19 16:20 EGKK 191620Z 24009KT 9999 BKN020 11/07 Q1028 WSW (240°) 10.4mph 11°C 7°C
19/03/19 15:50 EGKK 191550Z 23008KT 9999 FEW023 SCT037 12/07 Q1028 SW (230°) 9.2mph 12°C 7°C
19/03/19 15:20 EGKK 191520Z 22007KT 9999 FEW024 BKN045 12/07 Q1028 SW (220°) 8.1mph 12°C 7°C
19/03/19 14:50 EGKK 191450Z 23007KT 9999 FEW022 SCT037 12/07 Q1028 SW (230°) 8.1mph 12°C 7°C
19/03/19 13:50 EGKK 191350Z 23008KT 200V260 9999 SCT030 12/07 Q1028 SW (230°) 9.2mph 12°C 7°C
19/03/19 13:20 EGKK 191320Z 24010KT 9999 SCT021 BKN035 12/07 Q1028 WSW (240°) 11.5mph 12°C 7°C
19/03/19 12:50 EGKK 191250Z 24008KT 9999 SCT021 SCT027 12/07 Q1028 WSW (240°) 9.2mph 12°C 7°C
19/03/19 12:20 EGKK 191220Z 23007KT 9999 SCT020 12/07 Q1028 SW (230°) 8.1mph 12°C 7°C
19/03/19 11:50 EGKK 191150Z 23008KT 9999 SCT021 11/07 Q1028 SW (230°) 9.2mph 11°C 7°C
19/03/19 11:20 EGKK 191120Z 23006KT 190V270 9999 SCT018 BKN025 11/07 Q1028 SW (230°) 6.9mph 11°C 7°C
19/03/19 10:50 EGKK 191050Z 23005KT 200V280 9999 FEW013 BKN016 11/08 Q1028 SW (230°) 5.8mph 11°C 8°C
19/03/19 10:20 EGKK 191020Z 23006KT 190V260 9999 SCT012 10/08 Q1027 SW (230°) 6.9mph 10°C 8°C
19/03/19 09:50 EGKK 190950Z 26005KT 9000 FEW012 SCT028 BKN038 10/08 Q1027 W (260°) 5.8mph 10°C 8°C
19/03/19 09:20 EGKK 190920Z 24005KT 9000 FEW026 SCT039 09/07 Q1027 WSW (240°) 5.8mph 9°C 7°C
19/03/19 08:50 EGKK 190850Z 22004KT 190V270 9000 FEW032 SCT048 08/07 Q1027 SW (220°) 4.6mph 8°C 7°C
19/03/19 08:20 EGKK 190820Z 23004KT 9000 BKN035 07/07 Q1027 SW (230°) 4.6mph 7°C 7°C
19/03/19 07:50 EGKK 190750Z VRB03KT 8000 BKN028 07/07 Q1027 N (0°) 3.5mph 7°C 7°C
19/03/19 07:20 EGKK 190720Z VRB01KT 8000 BKN029 06/06 Q1026 N (0°) 1.2mph 6°C 6°C
19/03/19 06:50 EGKK 190650Z VRB01KT 8000 BKN031 06/06 Q1026 N (0°) 1.2mph 6°C 6°C
19/03/19 06:20 EGKK 190620Z 16002KT 9999 BKN030 06/06 Q1026 SSE (160°) 2.3mph 6°C 6°C
19/03/19 05:50 EGKK 190550Z 26003KT 9999 BKN037 05/05 Q1026 W (260°) 3.5mph 5°C 5°C
19/03/19 05:20 EGKK 190520Z VRB01KT 9999 BKN039 04/04 Q1026 N (0°) 1.2mph 4°C 4°C
19/03/19 04:20 EGKK 190420Z 20001KT 9999 BKN042 04/04 Q1025 SSW (200°) 1.2mph 4°C 4°C
19/03/19 03:50 EGKK 190350Z 07001KT 9999 BKN042 04/04 Q1025 ENE (70°) 1.2mph 4°C 4°C
19/03/19 03:20 EGKK 190320Z 10001KT 9999 FEW031 BKN044 04/04 Q1025 E (100°) 1.2mph 4°C 4°C
19/03/19 02:50 EGKK 190250Z AUTO VRB02KT 4900 BR OVC044/// 04/04 Q1025 BR N (0°) 2.3mph 4°C 4°C
19/03/19 02:20 EGKK 190220Z AUTO 08001KT 3300 BR FEW036/// SCT046/// 04/04 Q1025 BR E (80°) 1.2mph 4°C 4°C
19/03/19 01:50 EGKK 190150Z AUTO 07001KT 4000 BR SCT046/// 03/03 Q1025 BR ENE (70°) 1.2mph 3°C 3°C
19/03/19 01:20 EGKK 190120Z 20001KT 9999 NSC 03/03 Q1025 SSW (200°) 1.2mph 3°C 3°C
19/03/19 00:50 EGKK 190050Z 20001KT 9999 NSC 03/03 Q1025 SSW (200°) 1.2mph 3°C 3°C
19/03/19 00:20 EGKK 190020Z VRB01KT 9999 NSC 03/03 Q1025 N (0°) 1.2mph 3°C 3°C
18/03/19 23:50 EGKK 182350Z 13001KT 9999 NSC 03/03 Q1025 SE (130°) 1.2mph 3°C 3°C
18/03/19 22:50 EGKK 182250Z VRB02KT 9999 FEW048 04/04 Q1024 N (0°) 2.3mph 4°C 4°C
18/03/19 22:20 EGKK 182220Z 24002KT CAVOK 04/04 Q1024 WSW (240°) 2.3mph 4°C 4°C
18/03/19 21:50 EGKK 182150Z VRB02KT 8000 FEW020 04/04 Q1024 N (0°) 2.3mph 4°C 4°C
18/03/19 21:20 EGKK 182120Z 23002KT 8000 FEW024 05/04 Q1024 SW (230°) 2.3mph 5°C 4°C
18/03/19 20:50 EGKK 182050Z 00000KT 9000 NSC 05/04 Q1024 N (0°) 5°C 4°C
18/03/19 20:20 EGKK 182020Z 23003KT 9999 SCT026 06/05 Q1024 SW (230°) 3.5mph 6°C 5°C
18/03/19 19:50 EGKK 181950Z 24003KT 9999 -SHRA SCT032 06/05 Q1023 -SHRA WSW (240°) 3.5mph 6°C 5°C
18/03/19 19:20 EGKK 181920Z 20001KT 9999 SCT030 06/05 Q1023 SSW (200°) 1.2mph 6°C 5°C
18/03/19 18:50 EGKK 181850Z VRB02KT 9999 SCT033 07/05 Q1023 N (0°) 2.3mph 7°C 5°C
18/03/19 17:50 EGKK 181750Z 27006KT 9000 -SHRA FEW032 SCT042 08/05 Q1022 -SHRA W (270°) 6.9mph 8°C 5°C
18/03/19 17:20 EGKK 181720Z 25007KT 200V270 9999 FEW045 08/04 Q1022 WSW (250°) 8.1mph 8°C 4°C
18/03/19 16:50 EGKK 181650Z 28009KT 9999 FEW037 SCT045 09/04 Q1022 W (280°) 10.4mph 9°C 4°C
18/03/19 16:20 EGKK 181620Z 27009KT 9999 FEW035CB SCT040 BKN048 10/03 Q1021 W (270°) 10.4mph 10°C 3°C
18/03/19 15:50 EGKK 181550Z 28007KT 9999 FEW038 SCT045 11/02 Q1021 W (280°) 8.1mph 11°C 2°C
18/03/19 15:20 EGKK 181520Z 28007KT 9999 SCT045 11/01 Q1021 W (280°) 8.1mph 11°C 1°C
18/03/19 14:50 EGKK 181450Z 29007KT 260V330 CAVOK 11/01 Q1021 WNW (290°) 8.1mph 11°C 1°C
18/03/19 14:20 EGKK 181420Z 27005KT 230V320 9999 FEW046 11/02 Q1021 W (270°) 5.8mph 11°C 2°C
18/03/19 13:50 EGKK 181350Z 31006KT 9999 FEW044 10/02 Q1021 NW (310°) 6.9mph 10°C 2°C
18/03/19 12:50 EGKK 181250Z 28007KT 9999 FEW021 SCT042 10/03 Q1021 W (280°) 8.1mph 10°C 3°C
18/03/19 12:20 EGKK 181220Z 29010KT 240V330 9999 -RA SCT033 SCT039 10/03 Q1021 -RA WNW (290°) 11.5mph 10°C 3°C
18/03/19 11:50 EGKK 181150Z 29008KT 260V320 9999 SCT031 SCT039 10/03 Q1021 WNW (290°) 9.2mph 10°C 3°C
18/03/19 10:50 EGKK 181050Z 30009KT 9999 FEW027 09/03 Q1021 WNW (300°) 10.4mph 9°C 3°C
18/03/19 10:20 EGKK 181020Z 31011KT 9999 FEW028 09/03 Q1021 NW (310°) 12.7mph 9°C 3°C
18/03/19 09:50 EGKK 180950Z 31008KT 9999 FEW025 09/03 Q1021 NW (310°) 9.2mph 9°C 3°C
18/03/19 08:50 EGKK 180850Z 29007KT CAVOK 07/03 Q1020 WNW (290°) 8.1mph 7°C 3°C
18/03/19 08:20 EGKK 180820Z 30008KT CAVOK 07/03 Q1020 WNW (300°) 9.2mph 7°C 3°C
18/03/19 07:50 EGKK 180750Z 29006KT CAVOK 06/03 Q1020 WNW (290°) 6.9mph 6°C 3°C
18/03/19 07:20 EGKK 180720Z 29005KT CAVOK 05/02 Q1019 WNW (290°) 5.8mph 5°C 2°C
18/03/19 06:50 EGKK 180650Z 27007KT CAVOK 04/02 Q1019 W (270°) 8.1mph 4°C 2°C
18/03/19 06:20 EGKK 180620Z 28006KT CAVOK 04/02 Q1019 W (280°) 6.9mph 4°C 2°C
18/03/19 05:50 EGKK 180550Z 27006KT CAVOK 03/01 Q1019 W (270°) 6.9mph 3°C 1°C
18/03/19 05:20 EGKK 180520Z 27007KT CAVOK 03/01 Q1018 W (270°) 8.1mph 3°C 1°C
18/03/19 04:50 EGKK 180450Z 25006KT CAVOK 04/02 Q1018 WSW (250°) 6.9mph 4°C 2°C
18/03/19 04:20 EGKK 180420Z 26007KT CAVOK 03/01 Q1018 W (260°) 8.1mph 3°C 1°C
18/03/19 03:50 EGKK 180350Z 26008KT CAVOK 03/01 Q1017 W (260°) 9.2mph 3°C 1°C
18/03/19 03:20 EGKK 180320Z AUTO 28006KT 9999 NCD 04/02 Q1017 W (280°) 6.9mph 4°C 2°C
18/03/19 02:20 EGKK 180220Z AUTO 29009KT 9999 FEW047/// 05/02 Q1017 WNW (290°) 10.4mph 5°C 2°C
18/03/19 01:50 EGKK 180150Z 29011KT CAVOK 06/02 Q1016 WNW (290°) 12.7mph 6°C 2°C
18/03/19 00:50 EGKK 180050Z 29008KT CAVOK 06/02 Q1015 WNW (290°) 9.2mph 6°C 2°C
18/03/19 00:20 EGKK 180020Z 30011KT CAVOK 06/03 Q1015 WNW (300°) 12.7mph 6°C 3°C
17/03/19 23:50 EGKK 172350Z 30012KT CAVOK 06/03 Q1014 WNW (300°) 13.8mph 6°C 3°C
17/03/19 22:50 EGKK 172250Z 29010KT 9999 FEW042 06/03 Q1014 WNW (290°) 11.5mph 6°C 3°C
17/03/19 22:20 EGKK 172220Z 28008KT 9999 FEW033 BKN044 06/03 Q1013 W (280°) 9.2mph 6°C 3°C
17/03/19 21:50 EGKK 172150Z 28008KT 9999 FEW040 06/03 Q1013 W (280°) 9.2mph 6°C 3°C
17/03/19 20:50 EGKK 172050Z 29011KT 9999 FEW021 BKN043 06/03 Q1012 WNW (290°) 12.7mph 6°C 3°C
17/03/19 20:20 EGKK 172020Z 28010KT 9999 FEW022 SCT032 07/03 Q1012 W (280°) 11.5mph 7°C 3°C
17/03/19 19:20 EGKK 171920Z 27012KT 9999 SCT028 BKN036 06/03 Q1011 W (270°) 13.8mph 6°C 3°C
17/03/19 18:50 EGKK 171850Z 26014KT 9999 SCT037 07/02 Q1010 W (260°) 16.1mph 7°C 2°C
17/03/19 18:20 EGKK 171820Z 26011KT 9999 FEW036 06/02 Q1010 W (260°) 12.7mph 6°C 2°C
17/03/19 17:50 EGKK 171750Z 25006KT 9999 FEW016 SCT044 06/02 Q1009 WSW (250°) 6.9mph 6°C 2°C
17/03/19 17:20 EGKK 171720Z 28010KT 9999 FEW010CB SCT020 07/03 Q1009 W (280°) 11.5mph 7°C 3°C
17/03/19 16:50 EGKK 171650Z 25006KT 9000 -SHRA FEW012 SCT019 BKN045 07/03 Q1009 -SHRA WSW (250°) 6.9mph 7°C 3°C
17/03/19 15:50 EGKK 171550Z 29017KT 9999 -SHRA FEW016 SCT032 BKN041 08/00 Q1008 -SHRA WNW (290°) 19.6mph 8°C 0°C
17/03/19 14:50 EGKK 171450Z 27017KT 9999 FEW030 SCT044 10/M02 Q1007 W (270°) 19.6mph 10°C -2°C
17/03/19 14:20 EGKK 171420Z 26017KT 9999 SCT044 10/M01 Q1007 W (260°) 19.6mph 10°C -1°C
17/03/19 13:20 EGKK 171320Z 27015KT 9999 SCT047 10/M00 Q1007 W (270°) 17.3mph 10°C 0°C
17/03/19 12:50 EGKK 171250Z 26019KT 9999 SCT048 09/M01 Q1007 W (260°) 21.9mph 9°C -1°C
17/03/19 12:20 EGKK 171220Z 27015KT 9999 SCT045 09/M01 Q1006 W (270°) 17.3mph 9°C -1°C
17/03/19 11:50 EGKK 171150Z 27016KT 9999 FEW035 SCT040 09/01 Q1006 W (270°) 18.4mph 9°C 1°C
17/03/19 11:20 EGKK 171120Z 26014KT 9999 SCT038 08/02 Q1006 W (260°) 16.1mph 8°C 2°C
17/03/19 10:50 EGKK 171050Z 28016KT 9999 SCT034 07/00 Q1006 W (280°) 18.4mph 7°C 0°C
17/03/19 10:20 EGKK 171020Z 28014KT 9999 SCT025 07/01 Q1006 W (280°) 16.1mph 7°C 1°C
17/03/19 09:50 EGKK 170950Z 26011KT 9999 SCT022 07/03 Q1005 W (260°) 12.7mph 7°C 3°C
17/03/19 09:20 EGKK 170920Z 26013KT 9999 FEW019 07/03 Q1005 W (260°) 15.0mph 7°C 3°C
17/03/19 08:50 EGKK 170850Z 26014KT 9999 FEW020 06/03 Q1004 W (260°) 16.1mph 6°C 3°C
17/03/19 08:20 EGKK 170820Z 27014KT 9999 FEW015 06/03 Q1004 W (270°) 16.1mph 6°C 3°C
17/03/19 07:50 EGKK 170750Z 25010KT 9999 FEW016 05/03 Q1003 WSW (250°) 11.5mph 5°C 3°C
17/03/19 07:20 EGKK 170720Z 25009KT 9999 FEW035 04/03 Q1003 WSW (250°) 10.4mph 4°C 3°C
17/03/19 06:50 EGKK 170650Z 25009KT 9999 FEW024 04/02 Q1002 WSW (250°) 10.4mph 4°C 2°C
17/03/19 06:20 EGKK 170620Z 23007KT 9999 FEW035 04/02 Q1002 SW (230°) 8.1mph 4°C 2°C
17/03/19 05:50 EGKK 170550Z 25008KT CAVOK 04/02 Q1001 WSW (250°) 9.2mph 4°C 2°C
17/03/19 05:20 EGKK 170520Z 26010KT 9999 FEW018 04/03 Q1001 W (260°) 11.5mph 4°C 3°C
17/03/19 04:50 EGKK 170450Z 25009KT 9999 FEW019 05/03 Q1000 WSW (250°) 10.4mph 5°C 3°C
17/03/19 04:20 EGKK 170420Z 26008KT 9999 FEW017 04/03 Q1000 W (260°) 9.2mph 4°C 3°C
17/03/19 03:50 EGKK 170350Z 26012KT CAVOK 05/03 Q0999 W (260°) 13.8mph 5°C 3°C
17/03/19 03:20 EGKK 170320Z 25011KT CAVOK 06/03 Q0999 WSW (250°) 12.7mph 6°C 3°C
17/03/19 02:50 EGKK 170250Z 24011KT CAVOK 06/04 Q0999 WSW (240°) 12.7mph 6°C 4°C
17/03/19 02:20 EGKK 170220Z 25011KT CAVOK 06/04 Q0999 WSW (250°) 12.7mph 6°C 4°C
17/03/19 01:50 EGKK 170150Z 25013KT 9999 FEW021 06/04 Q0998 WSW (250°) 15.0mph 6°C 4°C
17/03/19 01:20 EGKK 170120Z 25012KT 9999 SCT018 07/05 Q0998 WSW (250°) 13.8mph 7°C 5°C
17/03/19 00:20 EGKK 170020Z 25011KT 9999 FEW023 SCT037 08/06 Q0997 WSW (250°) 12.7mph 8°C 6°C
16/03/19 23:50 EGKK 162350Z 25014KT 9999 FEW022 08/06 Q0997 WSW (250°) 16.1mph 8°C 6°C
16/03/19 23:20 EGKK 162320Z 24010KT 200V260 9999 -RA BKN015 BKN021 08/07 Q0997 -RA WSW (240°) 11.5mph 8°C 7°C
16/03/19 22:20 EGKK 162220Z 25014KT 9999 -RA BKN035 08/07 Q0996 RERA -RA WSW (250°) 16.1mph 8°C 7°C
16/03/19 21:50 EGKK 162150Z 22018G28KT 6000 RA BKN008 OVC013 09/09 Q0996 RA SW (220°) 20.7mph 32.2mph 9°C 9°C
16/03/19 21:20 EGKK 162120Z 22017KT 9999 -RA BKN007 OVC011 09/08 Q0996 -RA SW (220°) 19.6mph 9°C 8°C
16/03/19 20:50 EGKK 162050Z 22017KT 5000 -RA BKN007 OVC012 09/08 Q0997 -RA SW (220°) 19.6mph 9°C 8°C
16/03/19 20:20 EGKK 162020Z 21017KT 5000 -RA BKN010 09/08 Q0997 -RA SSW (210°) 19.6mph 9°C 8°C
16/03/19 19:50 EGKK 161950Z 21018KT 5000 -RA BKN009 OVC013 09/08 Q0997 -RA SSW (210°) 20.7mph 9°C 8°C
16/03/19 19:20 EGKK 161920Z 22017G29KT 5000 -RA BKN010 OVC014 09/08 Q0998 -RA SW (220°) 19.6mph 33.4mph 9°C 8°C
16/03/19 18:50 EGKK 161850Z 22017G31KT 180V240 5000 -RA BKN012 09/08 Q0998 -RA SW (220°) 19.6mph 35.7mph 9°C 8°C
16/03/19 18:20 EGKK 161820Z 22020G34KT 5000 -RA BKN012 09/08 Q0999 -RA SW (220°) 23.0mph 39.1mph 9°C 8°C
16/03/19 17:50 EGKK 161750Z 22020G30KT 8000 -RA SCT012 BKN016 09/08 Q0999 -RA SW (220°) 23.0mph 34.5mph 9°C 8°C
16/03/19 17:20 EGKK 161720Z 22022G35KT 9999 SCT017 BKN022 10/07 Q0999 SW (220°) 25.3mph 40.3mph 10°C 7°C
16/03/19 16:20 EGKK 161620Z 22019G30KT 6000 -RA BKN010 09/08 Q1000 -RA SW (220°) 21.9mph 34.5mph 9°C 8°C
16/03/19 15:50 EGKK 161550Z 22019G31KT 9999 -RA SCT011 BKN016 10/08 Q1001 -RA SW (220°) 21.9mph 35.7mph 10°C 8°C
16/03/19 15:20 EGKK 161520Z 22020G31KT 9999 -RA SCT012 BKN016 10/08 Q1001 -RA SW (220°) 23.0mph 35.7mph 10°C 8°C
16/03/19 14:20 EGKK 161420Z 22020G31KT 9999 -RA SCT012 BKN016 10/08 Q1002 -RA SW (220°) 23.0mph 35.7mph 10°C 8°C
16/03/19 13:20 EGKK 161320Z 23021G32KT 9999 SCT018 BKN023 11/07 Q1003 SW (230°) 24.2mph 36.8mph 11°C 7°C
16/03/19 12:50 EGKK 161250Z 22020G31KT 180V240 9999 -RA BKN020 10/07 Q1004 -RA SW (220°) 23.0mph 35.7mph 10°C 7°C
16/03/19 12:20 EGKK 161220Z 22017G28KT 190V250 9999 BKN018 10/08 Q1004 SW (220°) 19.6mph 32.2mph 10°C 8°C
16/03/19 11:50 EGKK 161150Z 23018KT 9999 -RA SCT015 BKN023 10/08 Q1004 -RA SW (230°) 20.7mph 10°C 8°C
16/03/19 10:50 EGKK 161050Z 23019G34KT 9999 FEW014 SCT025 BKN032 11/08 Q1005 SW (230°) 21.9mph 39.1mph 11°C 8°C